Mac Mahan, Maine
Current Conditions -  °F | °C
As of 7:53 PM on Monday 22 Dec 2014 (Local Time) from KIWI Reporting Station
Overcast Overcast  
Wind Chill: 31°   Ceiling: 2500
Heat Index: 35°   Visibility: 10mi
Dew Point: 33°   Wind: 5mph
Humidity: 92%   Direction: 50°NE
Pressure: 30.4"   Gusts: NA
Location:  43.8074°N, 69.7472°W
Report Text: KIWI 230053Z AUTO 05004KT 10SM OVC025 02/01 A3040 RMK AO2 SLP294 T00170006
Loading
Personal Weather Stations






























Interactive Weather Map New forecast layout! Learn more

10-Day Weather Forecast

Advertisements
Track Severe Weather on mobile